createdAt,value
2022-09-13T00:01:09.726Z,13.90
2022-09-13T00:03:40.477Z,13.80
2022-09-13T00:06:19.607Z,13.80
2022-09-13T00:08:47.860Z,13.80
2022-09-13T00:11:28.287Z,13.80
2022-09-13T00:13:56.846Z,13.80
2022-09-13T00:16:29.041Z,13.70
2022-09-13T00:18:56.531Z,13.70
2022-09-13T00:21:27.870Z,13.70
2022-09-13T00:23:57.664Z,13.70
2022-09-13T00:26:28.263Z,13.60
2022-09-13T00:28:59.643Z,13.60
2022-09-13T00:31:28.837Z,13.60
2022-09-13T00:33:58.574Z,13.60
2022-09-13T00:36:25.706Z,13.60
2022-09-13T00:38:52.704Z,13.50
2022-09-13T00:41:21.446Z,13.50
2022-09-13T00:43:54.522Z,13.50
2022-09-13T00:46:41.598Z,13.50
2022-09-13T00:49:12.212Z,13.50
2022-09-13T00:51:42.844Z,13.50
2022-09-13T00:54:11.059Z,13.40
2022-09-13T00:56:47.509Z,13.40
2022-09-13T00:59:41.564Z,13.40
2022-09-13T01:02:09.292Z,13.40
2022-09-13T01:04:37.392Z,13.30
2022-09-13T01:07:11.684Z,13.30
2022-09-13T01:09:46.469Z,13.30
2022-09-13T01:12:33.343Z,13.20
2022-09-13T01:15:04.297Z,13.20
2022-09-13T01:17:33.803Z,13.20
2022-09-13T01:20:06.666Z,13.20
2022-09-13T01:23:15.807Z,13.10
2022-09-13T01:25:54.435Z,13.10
2022-09-13T01:28:55.774Z,13.00
2022-09-13T01:31:45.861Z,13.00
2022-09-13T01:34:28.161Z,13.00
2022-09-13T01:37:33.669Z,12.90
2022-09-13T01:40:35.539Z,12.90
2022-09-13T01:43:31.592Z,12.90
2022-09-13T01:46:13.587Z,12.80
2022-09-13T01:49:10.522Z,12.80
2022-09-13T01:51:47.987Z,12.80
2022-09-13T01:54:29.847Z,12.80
2022-09-13T01:57:28.021Z,12.70
2022-09-13T02:00:14.733Z,12.70
2022-09-13T02:03:06.041Z,12.70
2022-09-13T02:05:57.601Z,12.70
2022-09-13T02:08:51.204Z,12.70
2022-09-13T02:11:22.501Z,12.70
2022-09-13T02:14:20.040Z,12.70
2022-09-13T02:17:04.430Z,12.60
2022-09-13T02:19:51.986Z,12.60
2022-09-13T02:22:26.349Z,12.60
2022-09-13T02:25:00.257Z,12.60
2022-09-13T02:27:32.292Z,12.60
2022-09-13T02:30:07.619Z,12.60
2022-09-13T02:32:49.475Z,12.60
2022-09-13T02:35:48.868Z,12.50
2022-09-13T02:38:27.834Z,12.50
2022-09-13T02:41:23.000Z,12.50
2022-09-13T02:44:02.121Z,12.50
2022-09-13T02:47:24.766Z,12.50
2022-09-13T02:50:11.032Z,12.40
2022-09-13T02:52:47.180Z,12.40
2022-09-13T02:55:31.225Z,12.30
2022-09-13T02:58:08.045Z,12.30
2022-09-13T03:00:35.522Z,12.30
2022-09-13T03:03:10.082Z,12.30
2022-09-13T03:05:40.994Z,12.20
2022-09-13T03:08:11.042Z,12.20
2022-09-13T03:10:56.016Z,12.20
2022-09-13T03:13:37.697Z,12.20
2022-09-13T03:16:39.103Z,12.10
2022-09-13T03:19:45.637Z,12.10
2022-09-13T03:22:31.090Z,12.10
2022-09-13T03:25:58.502Z,12.10
2022-09-13T03:28:59.497Z,12.10
2022-09-13T03:32:19.807Z,12.10
2022-09-13T03:35:23.392Z,12.10
2022-09-13T03:38:13.117Z,12.10
2022-09-13T03:40:57.065Z,12.10
2022-09-13T03:43:35.769Z,12.10
2022-09-13T03:46:51.670Z,12.00
2022-09-13T03:49:23.202Z,12.00
2022-09-13T03:51:52.935Z,12.00
2022-09-13T03:54:32.600Z,12.00
2022-09-13T03:57:21.072Z,11.90
2022-09-13T03:59:55.187Z,11.90
2022-09-13T04:04:52.663Z,11.90
2022-09-13T04:07:22.736Z,11.90
2022-09-13T04:09:50.230Z,11.90
2022-09-13T04:12:18.997Z,11.90
2022-09-13T04:14:49.319Z,11.90
2022-09-13T04:17:16.743Z,11.90
2022-09-13T04:19:45.732Z,11.80
2022-09-13T04:22:14.101Z,11.80
2022-09-13T04:24:44.419Z,11.80
2022-09-13T04:27:12.746Z,11.80
2022-09-13T04:29:40.025Z,11.80
2022-09-13T04:32:11.116Z,11.80
2022-09-13T04:34:38.200Z,11.80
2022-09-13T04:37:09.305Z,11.80
2022-09-13T04:39:39.755Z,11.80
2022-09-13T04:42:07.420Z,11.70
2022-09-13T04:44:34.623Z,11.80
2022-09-13T04:47:01.675Z,11.70
2022-09-13T04:49:28.739Z,11.70
2022-09-13T04:51:56.004Z,11.70
2022-09-13T04:54:23.232Z,11.70
2022-09-13T04:56:50.381Z,11.70
2022-09-13T04:59:17.420Z,11.70
2022-09-13T05:01:44.769Z,11.80
2022-09-13T05:04:12.004Z,11.70
2022-09-13T05:06:39.168Z,11.80
2022-09-13T05:09:14.393Z,11.80
2022-09-13T05:11:44.846Z,11.80
2022-09-13T05:14:12.549Z,11.80
2022-09-13T05:16:39.916Z,11.80
2022-09-13T05:19:07.061Z,11.80
2022-09-13T05:21:37.069Z,11.80
2022-09-13T05:24:07.135Z,11.80
2022-09-13T05:26:37.938Z,11.90
2022-09-13T05:29:08.517Z,11.90
2022-09-13T05:31:42.477Z,12.00
2022-09-13T05:34:16.421Z,11.90
2022-09-13T05:36:43.706Z,12.00
2022-09-13T05:42:03.207Z,12.00
2022-09-13T05:44:30.614Z,12.10
2022-09-13T05:46:57.907Z,12.10
2022-09-13T05:49:25.709Z,12.10
2022-09-13T05:51:56.027Z,12.20
2022-09-13T05:54:23.542Z,12.20
2022-09-13T05:56:52.574Z,12.30
2022-09-13T05:59:20.088Z,12.30
2022-09-13T06:01:48.549Z,12.30
2022-09-13T06:04:15.811Z,12.40
2022-09-13T06:06:43.387Z,12.40
2022-09-13T06:09:12.107Z,12.50
2022-09-13T06:11:39.201Z,12.50
2022-09-13T06:14:06.565Z,12.60
2022-09-13T06:16:34.203Z,12.70
2022-09-13T06:19:01.414Z,12.70
2022-09-13T06:21:29.428Z,12.80
2022-09-13T06:23:56.819Z,12.90
2022-09-13T06:26:27.829Z,12.90
2022-09-13T06:28:57.769Z,13.00
2022-09-13T06:31:27.864Z,13.00
2022-09-13T06:34:02.329Z,13.10
2022-09-13T06:36:31.343Z,13.20
2022-09-13T06:39:00.663Z,13.30
2022-09-13T06:41:28.398Z,13.30
2022-09-13T06:43:58.761Z,13.40
2022-09-13T06:46:32.587Z,13.50
2022-09-13T06:49:02.160Z,13.60
2022-09-13T06:51:32.891Z,13.70
2022-09-13T06:54:00.432Z,13.70
2022-09-13T06:56:33.935Z,13.80
2022-09-13T06:59:05.120Z,13.90
2022-09-13T07:01:35.967Z,14.00
2022-09-13T07:04:09.768Z,14.10
2022-09-13T07:06:43.257Z,14.10
2022-09-13T07:09:19.381Z,14.20
2022-09-13T07:11:48.442Z,14.30
2022-09-13T07:14:22.789Z,14.30
2022-09-13T07:16:51.937Z,14.40
2022-09-13T07:19:22.999Z,14.50
2022-09-13T07:21:50.945Z,14.60
2022-09-13T07:24:20.218Z,14.60
2022-09-13T07:26:51.771Z,14.70
2022-09-13T07:29:23.813Z,14.80
2022-09-13T07:31:54.726Z,14.90
2022-09-13T07:34:26.604Z,15.00
2022-09-13T07:36:54.252Z,15.00
2022-09-13T07:39:22.977Z,15.10
2022-09-13T07:41:51.672Z,15.20
2022-09-13T07:44:18.880Z,15.20
2022-09-13T07:46:49.141Z,15.30
2022-09-13T07:49:19.757Z,15.40
2022-09-13T07:51:51.239Z,15.40
2022-09-13T07:54:19.702Z,15.60
2022-09-13T07:56:50.115Z,15.70
2022-09-13T07:59:19.558Z,15.70
2022-09-13T08:01:50.083Z,15.80
2022-09-13T08:04:21.225Z,15.80
2022-09-13T08:06:49.307Z,16.00
2022-09-13T08:09:18.685Z,16.10
2022-09-13T08:11:54.309Z,16.20
2022-09-13T08:14:23.243Z,16.30
2022-09-13T08:16:50.473Z,16.30
2022-09-13T08:19:19.277Z,16.50
2022-09-13T08:21:47.273Z,16.60
2022-09-13T08:24:21.372Z,16.70
2022-09-13T08:26:49.681Z,16.70
2022-09-13T08:29:17.715Z,16.80
2022-09-13T08:31:45.159Z,16.90
2022-09-13T08:34:17.138Z,17.00
2022-09-13T08:36:44.888Z,17.00
2022-09-13T08:39:15.301Z,17.10
2022-09-13T08:41:43.880Z,17.20
2022-09-13T08:44:35.374Z,17.30
2022-09-13T08:47:43.383Z,17.30
2022-09-13T08:50:21.976Z,17.40
2022-09-13T08:53:00.010Z,17.50
2022-09-13T08:55:48.979Z,17.60
2022-09-13T08:59:00.472Z,17.80
2022-09-13T09:02:01.399Z,17.90
2022-09-13T09:04:43.886Z,18.00
2022-09-13T09:07:40.568Z,18.10
2022-09-13T09:10:47.421Z,18.10
2022-09-13T09:13:48.901Z,18.20
2022-09-13T09:16:40.629Z,18.30
2022-09-13T09:19:30.379Z,18.30
2022-09-13T09:21:59.486Z,18.40
2022-09-13T09:24:26.871Z,18.50
2022-09-13T09:26:57.319Z,18.60
2022-09-13T09:29:33.506Z,18.70
2022-09-13T09:32:41.203Z,18.70
2022-09-13T09:35:45.467Z,18.80
2022-09-13T09:38:24.459Z,18.90
2022-09-13T09:40:52.614Z,19.00
2022-09-13T09:43:35.303Z,19.10
2022-09-13T09:46:06.037Z,19.20
2022-09-13T09:48:46.610Z,19.20
2022-09-13T09:51:15.497Z,19.30
2022-09-13T09:53:47.495Z,19.40
2022-09-13T09:56:26.387Z,19.50
2022-09-13T09:58:55.890Z,19.50
2022-09-13T10:01:29.814Z,19.60
2022-09-13T10:04:05.175Z,19.70
2022-09-13T10:06:32.797Z,19.80
2022-09-13T10:09:20.332Z,19.80
2022-09-13T10:11:58.487Z,19.90
2022-09-13T10:14:49.379Z,20.00
2022-09-13T10:17:25.544Z,20.10
2022-09-13T10:20:03.995Z,20.20
2022-09-13T10:22:34.577Z,20.30
2022-09-13T10:25:25.723Z,20.40
2022-09-13T10:27:59.191Z,20.50
2022-09-13T10:30:47.840Z,20.60
2022-09-13T10:33:29.923Z,20.70
2022-09-13T10:36:02.370Z,20.80
2022-09-13T10:38:45.435Z,20.80
2022-09-13T10:41:24.315Z,20.90
2022-09-13T10:44:00.206Z,20.90
2022-09-13T10:46:36.711Z,21.00
2022-09-13T10:49:03.874Z,21.00
2022-09-13T10:51:38.528Z,21.10
2022-09-13T10:54:20.213Z,21.20
2022-09-13T10:56:48.934Z,21.20
2022-09-13T10:59:29.604Z,21.20
2022-09-13T11:02:18.813Z,21.30
2022-09-13T11:05:22.668Z,21.30
2022-09-13T11:08:55.559Z,21.40
2022-09-13T11:11:41.100Z,21.50
2022-09-13T11:14:20.284Z,21.70
2022-09-13T11:17:38.277Z,21.80
2022-09-13T11:20:33.448Z,21.90
2022-09-13T11:23:05.851Z,22.10
2022-09-13T11:26:16.355Z,22.10
2022-09-13T11:28:58.804Z,22.20
2022-09-13T11:31:42.717Z,22.20
2022-09-13T11:34:33.184Z,22.30
2022-09-13T11:37:40.073Z,22.40
2022-09-13T11:40:49.560Z,22.50
2022-09-13T11:43:35.683Z,22.60
2022-09-13T11:46:14.654Z,22.70
2022-09-13T11:49:22.114Z,22.70
2022-09-13T11:52:27.000Z,22.80
2022-09-13T11:55:16.474Z,22.80
2022-09-13T11:57:52.885Z,22.90
2022-09-13T12:00:40.597Z,23.00
2022-09-13T12:03:56.847Z,23.10
2022-09-13T12:06:30.283Z,23.20
2022-09-13T12:09:12.911Z,23.30
2022-09-13T12:11:47.006Z,23.40
2022-09-13T12:14:25.678Z,23.50
2022-09-13T12:16:59.561Z,23.60
2022-09-13T12:19:45.252Z,23.70
2022-09-13T12:22:14.367Z,23.80
2022-09-13T12:24:53.543Z,23.90
2022-09-13T12:27:54.123Z,24.00
2022-09-13T12:30:24.691Z,24.20
2022-09-13T12:32:58.144Z,24.30
2022-09-13T12:36:10.311Z,24.40
2022-09-13T12:39:24.105Z,24.50
2022-09-13T12:41:56.875Z,24.50
2022-09-13T12:45:16.919Z,24.50
2022-09-13T12:48:06.271Z,24.50
2022-09-13T12:50:52.101Z,24.50
2022-09-13T12:53:58.287Z,24.60
2022-09-13T12:56:47.001Z,24.50
2022-09-13T12:59:45.002Z,24.70
2022-09-13T13:02:54.256Z,24.90
2022-09-13T13:05:49.331Z,25.10
2022-09-13T13:08:19.698Z,25.40
2022-09-13T13:11:14.307Z,25.50
2022-09-13T13:14:02.304Z,25.70
2022-09-13T13:16:37.930Z,25.80
2022-09-13T13:19:29.695Z,25.90
2022-09-13T13:22:43.923Z,26.00
2022-09-13T13:26:01.237Z,26.00
2022-09-13T13:28:50.731Z,26.10
2022-09-13T13:31:24.469Z,26.20
2022-09-13T13:34:08.349Z,26.30
2022-09-13T13:36:41.248Z,26.30
2022-09-13T13:39:26.097Z,26.30
2022-09-13T13:42:18.701Z,26.40
2022-09-13T13:44:45.652Z,26.60
2022-09-13T13:47:15.406Z,26.70
2022-09-13T13:50:09.516Z,26.90
2022-09-13T13:52:53.089Z,27.00
2022-09-13T13:55:38.066Z,26.90
2022-09-13T13:58:07.725Z,27.00
2022-09-13T14:00:36.814Z,27.20
2022-09-13T14:03:25.703Z,27.30
2022-09-13T14:06:05.900Z,27.50
2022-09-13T14:11:49.654Z,27.30
2022-09-13T14:14:29.991Z,27.10
2022-09-13T14:17:38.813Z,27.30
2022-09-13T14:20:12.537Z,27.40
2022-09-13T14:22:39.604Z,27.60
2022-09-13T14:25:25.757Z,27.80
2022-09-13T14:27:58.466Z,27.70
2022-09-13T14:30:30.027Z,27.80
2022-09-13T14:32:58.539Z,27.80
2022-09-13T14:35:41.333Z,27.60
2022-09-13T14:38:33.671Z,27.40
2022-09-13T14:41:10.268Z,27.20
2022-09-13T14:43:37.446Z,26.90
2022-09-13T14:46:34.214Z,26.70
2022-09-13T14:49:06.944Z,26.50
2022-09-13T14:51:49.079Z,26.30
2022-09-13T14:54:42.983Z,26.10
2022-09-13T14:57:30.721Z,26.00
2022-09-13T15:00:16.207Z,25.90
2022-09-13T15:02:52.048Z,25.80
2022-09-13T15:05:25.306Z,25.60
2022-09-13T15:07:52.430Z,25.50
2022-09-13T15:10:26.112Z,25.30
2022-09-13T15:12:57.873Z,25.20
2022-09-13T15:15:38.718Z,25.00
2022-09-13T15:18:08.917Z,24.90
2022-09-13T15:21:04.082Z,24.70
2022-09-13T15:23:48.901Z,24.60
2022-09-13T15:26:28.165Z,24.40
2022-09-13T15:29:04.284Z,24.30
2022-09-13T15:31:34.902Z,24.20
2022-09-13T15:34:17.510Z,24.10
2022-09-13T15:36:46.813Z,24.00
2022-09-13T15:39:18.872Z,23.90
2022-09-13T15:42:00.568Z,23.80
2022-09-13T15:44:32.460Z,23.60
2022-09-13T15:47:08.421Z,23.60
2022-09-13T15:49:37.736Z,23.50
2022-09-13T15:52:05.829Z,23.50
2022-09-13T15:54:34.465Z,23.40
2022-09-13T15:57:27.161Z,23.30
2022-09-13T16:00:01.461Z,23.30
2022-09-13T16:02:33.328Z,23.20
2022-09-13T16:05:00.582Z,23.10
2022-09-13T16:07:27.943Z,23.10
2022-09-13T16:09:55.340Z,23.10
2022-09-13T16:12:24.606Z,22.90
2022-09-13T16:14:51.970Z,22.90
2022-09-13T16:17:28.575Z,22.80
2022-09-13T16:19:55.888Z,22.80
2022-09-13T16:22:23.776Z,22.70
2022-09-13T16:24:51.204Z,22.60
2022-09-13T16:27:20.620Z,22.50
2022-09-13T16:29:48.011Z,22.50
2022-09-13T16:32:15.710Z,22.40
2022-09-13T16:34:42.916Z,22.40
2022-09-13T16:37:19.033Z,22.30
2022-09-13T16:39:46.401Z,22.30
2022-09-13T16:42:17.683Z,22.30
2022-09-13T16:44:45.320Z,22.20
2022-09-13T16:47:12.536Z,22.20
2022-09-13T16:49:39.682Z,22.20
2022-09-13T16:52:10.457Z,22.20
2022-09-13T16:54:37.888Z,22.10
2022-09-13T16:57:06.749Z,22.10
2022-09-13T16:59:34.345Z,22.10
2022-09-13T17:02:01.587Z,22.10
2022-09-13T17:04:28.859Z,22.10
2022-09-13T17:06:56.316Z,22.00
2022-09-13T17:09:26.573Z,22.00
2022-09-13T17:11:57.436Z,21.90
2022-09-13T17:14:24.600Z,21.90
2022-09-13T17:16:55.932Z,21.90
2022-09-13T17:19:35.815Z,21.90
2022-09-13T17:22:06.166Z,21.90
2022-09-13T17:24:34.566Z,21.90
2022-09-13T17:27:02.098Z,21.80
2022-09-13T17:29:31.109Z,21.80
2022-09-13T17:32:03.308Z,21.70
2022-09-13T17:34:32.489Z,21.70
2022-09-13T17:36:59.532Z,21.70
2022-09-13T17:39:31.001Z,21.60
2022-09-13T17:42:01.571Z,21.60
2022-09-13T17:44:28.999Z,21.60
2022-09-13T17:46:59.644Z,21.60
2022-09-13T17:49:27.153Z,21.50
2022-09-13T17:51:58.000Z,21.50
2022-09-13T17:54:26.161Z,21.50
2022-09-13T17:56:53.770Z,21.40
2022-09-13T17:59:22.222Z,21.40
2022-09-13T18:01:53.397Z,21.40
2022-09-13T18:04:23.794Z,21.40
2022-09-13T18:06:53.244Z,21.30
2022-09-13T18:09:21.596Z,21.30
2022-09-13T18:11:50.742Z,21.30
2022-09-13T18:14:19.855Z,21.30
2022-09-13T18:16:55.825Z,21.30
2022-09-13T18:19:44.850Z,21.20
2022-09-13T18:22:13.105Z,21.10
2022-09-13T18:24:41.049Z,21.10
2022-09-13T18:27:08.630Z,21.10
2022-09-13T18:29:36.202Z,21.10
2022-09-13T18:32:03.733Z,21.10
2022-09-13T18:34:31.308Z,21.10
2022-09-13T18:36:59.004Z,21.10
2022-09-13T18:39:26.803Z,21.10
2022-09-13T18:41:57.100Z,21.10
2022-09-13T18:44:30.861Z,21.10
2022-09-13T18:46:59.109Z,21.00
2022-09-13T18:49:27.257Z,21.00
2022-09-13T18:51:58.477Z,21.00
2022-09-13T18:54:26.395Z,20.90
2022-09-13T18:56:55.483Z,20.90
2022-09-13T18:59:25.634Z,20.80
2022-09-13T19:01:53.373Z,20.80
2022-09-13T19:04:21.681Z,20.80
2022-09-13T19:06:53.738Z,20.80
2022-09-13T19:09:24.816Z,20.70
2022-09-13T19:11:54.348Z,20.70
2022-09-13T19:14:28.018Z,20.70
2022-09-13T19:17:04.907Z,20.60
2022-09-13T19:19:35.783Z,20.50
2022-09-13T19:22:05.228Z,20.50
2022-09-13T19:24:38.264Z,20.50
2022-09-13T19:27:06.171Z,20.30
2022-09-13T19:29:33.853Z,20.30
2022-09-13T19:32:04.994Z,20.20
2022-09-13T19:34:32.586Z,20.10
2022-09-13T19:37:01.510Z,20.00
2022-09-13T19:39:33.087Z,19.90
2022-09-13T19:42:04.541Z,19.80
2022-09-13T19:44:35.854Z,19.80
2022-09-13T19:47:53.078Z,19.60
2022-09-13T19:49:54.216Z,19.60
2022-09-13T19:52:22.244Z,19.50
2022-09-13T19:54:56.663Z,19.50
2022-09-13T19:57:27.849Z,19.40
2022-09-13T19:59:56.536Z,19.30
2022-09-13T20:02:30.855Z,19.20
2022-09-13T20:05:02.223Z,19.20
2022-09-13T20:07:30.322Z,19.10
2022-09-13T20:10:01.621Z,19.00
2022-09-13T20:12:36.347Z,19.00
2022-09-13T20:15:11.053Z,19.00
2022-09-13T20:17:42.458Z,18.90
2022-09-13T20:20:13.154Z,18.90
2022-09-13T20:22:44.702Z,18.80
2022-09-13T20:25:16.491Z,18.80
2022-09-13T20:27:45.679Z,18.70
2022-09-13T20:30:16.331Z,18.70
2022-09-13T20:32:47.363Z,18.60
2022-09-13T20:35:18.401Z,18.60
2022-09-13T20:37:46.581Z,18.60
2022-09-13T20:40:18.040Z,18.60
2022-09-13T20:42:46.831Z,18.50
2022-09-13T20:45:17.011Z,18.50
2022-09-13T20:47:45.737Z,18.40
2022-09-13T20:50:13.481Z,18.30
2022-09-13T20:52:41.143Z,18.30
2022-09-13T20:55:12.063Z,18.20
2022-09-13T20:57:42.834Z,18.20
2022-09-13T21:00:12.065Z,18.10
2022-09-13T21:02:39.142Z,18.10
2022-09-13T21:05:06.714Z,18.00
2022-09-13T21:07:52.252Z,18.00
2022-09-13T21:10:19.821Z,18.00
2022-09-13T21:12:53.722Z,18.00
2022-09-13T21:15:20.957Z,18.00
2022-09-13T21:17:48.037Z,17.90
2022-09-13T21:20:15.821Z,17.90
2022-09-13T21:22:43.817Z,17.90
2022-09-13T21:25:11.053Z,17.80
2022-09-13T21:27:38.203Z,17.80
2022-09-13T21:30:08.186Z,17.80
2022-09-13T21:32:35.238Z,17.80
2022-09-13T21:35:02.786Z,17.80
2022-09-13T21:37:29.859Z,17.80
2022-09-13T21:39:57.032Z,17.80
2022-09-13T21:42:24.194Z,17.80
2022-09-13T21:44:51.549Z,17.70
2022-09-13T21:47:22.057Z,17.60
2022-09-13T21:49:49.200Z,17.60
2022-09-13T21:52:16.694Z,17.60
2022-09-13T21:54:47.065Z,17.50
2022-09-13T21:57:14.590Z,17.50
2022-09-13T21:59:41.682Z,17.40
2022-09-13T22:02:08.880Z,17.40
2022-09-13T22:04:35.938Z,17.40
2022-09-13T22:07:06.334Z,17.40
2022-09-13T22:09:33.353Z,17.30
2022-09-13T22:12:00.998Z,17.30
2022-09-13T22:14:28.256Z,17.20
2022-09-13T22:16:55.605Z,17.20
2022-09-13T22:19:26.535Z,17.20
2022-09-13T22:21:57.034Z,17.10
2022-09-13T22:24:26.067Z,17.10
2022-09-13T22:26:56.342Z,17.00
2022-09-13T22:29:23.570Z,17.00
2022-09-13T22:31:54.716Z,17.00
2022-09-13T22:34:24.897Z,16.90
2022-09-13T22:36:55.307Z,16.90
2022-09-13T22:39:22.686Z,16.90
2022-09-13T22:41:50.287Z,16.80
2022-09-13T22:44:20.736Z,16.80
2022-09-13T22:46:48.202Z,16.80
2022-09-13T22:49:19.969Z,16.80
2022-09-13T22:51:50.402Z,16.80
2022-09-13T22:54:19.170Z,16.70
2022-09-13T22:56:46.878Z,16.70
2022-09-13T22:59:18.092Z,16.70
2022-09-13T23:01:45.617Z,16.60
2022-09-13T23:04:16.011Z,16.60
2022-09-13T23:06:46.708Z,16.60
2022-09-13T23:09:18.677Z,16.60
2022-09-13T23:11:46.468Z,16.60
2022-09-13T23:14:16.039Z,16.60
2022-09-13T23:16:46.854Z,16.50
2022-09-13T23:19:15.388Z,16.50
2022-09-13T23:21:43.907Z,16.50
2022-09-13T23:24:16.880Z,16.50
2022-09-13T23:26:45.260Z,16.50
2022-09-13T23:29:17.047Z,16.40
2022-09-13T23:31:44.705Z,16.40
2022-09-13T23:34:12.993Z,16.40
2022-09-13T23:36:44.682Z,16.40
2022-09-13T23:39:16.813Z,16.40
2022-09-13T23:41:49.590Z,16.40
2022-09-13T23:44:17.321Z,16.40
2022-09-13T23:46:45.259Z,16.40
2022-09-13T23:49:12.412Z,16.40
2022-09-13T23:51:39.508Z,16.40
2022-09-13T23:54:06.918Z,16.40
2022-09-13T23:56:37.109Z,16.40
2022-09-13T23:59:06.264Z,16.30
